sensor_id;sensor_type;location;lat;lon;timestamp;temperature;humidity
18450;DHT22;9354;50.194;7.690;2024-01-15T00:01:21;-1.70;99.90
18450;DHT22;9354;50.194;7.690;2024-01-15T00:03:50;-1.70;99.90
18450;DHT22;9354;50.194;7.690;2024-01-15T00:06:18;-1.70;99.90
18450;DHT22;9354;50.194;7.690;2024-01-15T00:08:45;-1.70;99.90
18450;DHT22;9354;50.194;7.690;2024-01-15T00:11:12;-1.70;99.90
18450;DHT22;9354;50.194;7.690;2024-01-15T00:13:40;-1.70;99.90
18450;DHT22;9354;50.194;7.690;2024-01-15T00:16:07;-1.60;99.90
18450;DHT22;9354;50.194;7.690;2024-01-15T00:18:35;-1.70;99.90
18450;DHT22;9354;50.194;7.690;2024-01-15T00:21:04;-1.70;99.90
18450;DHT22;9354;50.194;7.690;2024-01-15T00:23:31;-1.60;99.90
18450;DHT22;9354;50.194;7.690;2024-01-15T00:26:01;-1.60;99.90
18450;DHT22;9354;50.194;7.690;2024-01-15T00:28:29;-1.60;99.90
18450;DHT22;9354;50.194;7.690;2024-01-15T00:30:56;-1.60;99.90
18450;DHT22;9354;50.194;7.690;2024-01-15T00:33:23;-1.60;99.90
18450;DHT22;9354;50.194;7.690;2024-01-15T00:35:51;-1.60;99.90
18450;DHT22;9354;50.194;7.690;2024-01-15T00:38:20;-1.60;99.90
18450;DHT22;9354;50.194;7.690;2024-01-15T00:40:47;-1.50;99.90
18450;DHT22;9354;50.194;7.690;2024-01-15T00:43:15;-1.50;99.90
18450;DHT22;9354;50.194;7.690;2024-01-15T00:45:44;-1.50;99.90
18450;DHT22;9354;50.194;7.690;2024-01-15T00:48:11;-1.50;99.90
18450;DHT22;9354;50.194;7.690;2024-01-15T00:50:39;-1.50;99.90
18450;DHT22;9354;50.194;7.690;2024-01-15T00:53:06;-1.50;99.90
18450;DHT22;9354;50.194;7.690;2024-01-15T00:55:35;-1.50;99.90
18450;DHT22;9354;50.194;7.690;2024-01-15T00:58:03;-1.50;99.90
18450;DHT22;9354;50.194;7.690;2024-01-15T01:00:31;-1.50;99.90
18450;DHT22;9354;50.194;7.690;2024-01-15T01:02:58;-1.50;99.90
18450;DHT22;9354;50.194;7.690;2024-01-15T01:05:25;-1.50;99.90
18450;DHT22;9354;50.194;7.690;2024-01-15T01:07:53;-1.50;99.90
18450;DHT22;9354;50.194;7.690;2024-01-15T01:10:20;-1.50;99.90
18450;DHT22;9354;50.194;7.690;2024-01-15T01:12:49;-1.50;99.90
18450;DHT22;9354;50.194;7.690;2024-01-15T01:15:16;-1.40;99.90
18450;DHT22;9354;50.194;7.690;2024-01-15T01:17:47;-1.40;99.90
18450;DHT22;9354;50.194;7.690;2024-01-15T01:20:14;-1.40;99.90
18450;DHT22;9354;50.194;7.690;2024-01-15T01:22:42;-1.40;99.90
18450;DHT22;9354;50.194;7.690;2024-01-15T01:25:09;-1.40;99.90
18450;DHT22;9354;50.194;7.690;2024-01-15T01:27:37;-1.40;99.90
18450;DHT22;9354;50.194;7.690;2024-01-15T01:30:07;-1.40;99.90
18450;DHT22;9354;50.194;7.690;2024-01-15T01:32:34;-1.40;99.90
18450;DHT22;9354;50.194;7.690;2024-01-15T01:35:01;-1.40;99.90
18450;DHT22;9354;50.194;7.690;2024-01-15T01:37:29;-1.40;99.90
18450;DHT22;9354;50.194;7.690;2024-01-15T01:39:57;-1.40;99.90
18450;DHT22;9354;50.194;7.690;2024-01-15T01:42:25;-1.40;99.90
18450;DHT22;9354;50.194;7.690;2024-01-15T01:44:52;-1.40;99.90
18450;DHT22;9354;50.194;7.690;2024-01-15T01:47:21;-1.50;99.90
18450;DHT22;9354;50.194;7.690;2024-01-15T01:49:48;-1.50;99.90
18450;DHT22;9354;50.194;7.690;2024-01-15T01:52:16;-1.50;99.90
18450;DHT22;9354;50.194;7.690;2024-01-15T01:54:43;-1.40;99.90
18450;DHT22;9354;50.194;7.690;2024-01-15T01:57:11;-1.50;99.90
18450;DHT22;9354;50.194;7.690;2024-01-15T01:59:39;-1.40;99.90
18450;DHT22;9354;50.194;7.690;2024-01-15T02:02:06;-1.40;99.90
18450;DHT22;9354;50.194;7.690;2024-01-15T02:04:36;-1.40;99.90
18450;DHT22;9354;50.194;7.690;2024-01-15T02:07:04;-1.40;99.90
18450;DHT22;9354;50.194;7.690;2024-01-15T02:09:31;-1.40;99.90
18450;DHT22;9354;50.194;7.690;2024-01-15T02:11:59;-1.40;99.90
18450;DHT22;9354;50.194;7.690;2024-01-15T02:14:26;-1.40;99.90
18450;DHT22;9354;50.194;7.690;2024-01-15T02:16:54;-1.50;99.90
18450;DHT22;9354;50.194;7.690;2024-01-15T02:19:21;-1.50;99.90
18450;DHT22;9354;50.194;7.690;2024-01-15T02:21:50;-1.50;99.90
18450;DHT22;9354;50.194;7.690;2024-01-15T02:24:19;-1.50;99.90
18450;DHT22;9354;50.194;7.690;2024-01-15T02:26:46;-1.50;99.90
18450;DHT22;9354;50.194;7.690;2024-01-15T02:29:14;-1.50;99.90
18450;DHT22;9354;50.194;7.690;2024-01-15T02:31:42;-1.40;99.90
18450;DHT22;9354;50.194;7.690;2024-01-15T02:34:09;-1.40;99.90
18450;DHT22;9354;50.194;7.690;2024-01-15T02:36:36;-1.40;99.90
18450;DHT22;9354;50.194;7.690;2024-01-15T02:39:04;-1.40;99.90
18450;DHT22;9354;50.194;7.690;2024-01-15T02:41:33;-1.40;99.90
18450;DHT22;9354;50.194;7.690;2024-01-15T02:44:00;-1.40;99.90
18450;DHT22;9354;50.194;7.690;2024-01-15T02:46:27;-1.40;99.90
18450;DHT22;9354;50.194;7.690;2024-01-15T02:48:55;-1.40;99.90
18450;DHT22;9354;50.194;7.690;2024-01-15T02:51:22;-1.40;99.90
18450;DHT22;9354;50.194;7.690;2024-01-15T02:53:51;-1.40;99.90
18450;DHT22;9354;50.194;7.690;2024-01-15T02:56:19;-1.40;99.90
18450;DHT22;9354;50.194;7.690;2024-01-15T02:58:48;-1.40;99.90
18450;DHT22;9354;50.194;7.690;2024-01-15T03:01:17;-1.40;99.90
18450;DHT22;9354;50.194;7.690;2024-01-15T03:03:45;-1.40;99.90
18450;DHT22;9354;50.194;7.690;2024-01-15T03:06:12;-1.40;99.90
18450;DHT22;9354;50.194;7.690;2024-01-15T03:08:40;-1.40;99.90
18450;DHT22;9354;50.194;7.690;2024-01-15T03:11:07;-1.40;99.90
18450;DHT22;9354;50.194;7.690;2024-01-15T03:13:35;-1.40;99.90
18450;DHT22;9354;50.194;7.690;2024-01-15T03:16:05;-1.30;99.90
18450;DHT22;9354;50.194;7.690;2024-01-15T03:18:33;-1.30;99.90
18450;DHT22;9354;50.194;7.690;2024-01-15T03:21:00;-1.20;99.90
18450;DHT22;9354;50.194;7.690;2024-01-15T03:23:28;-1.20;99.90
18450;DHT22;9354;50.194;7.690;2024-01-15T03:25:55;-1.20;99.90
18450;DHT22;9354;50.194;7.690;2024-01-15T03:28:23;-1.20;99.90
18450;DHT22;9354;50.194;7.690;2024-01-15T03:30:50;-1.10;99.90
18450;DHT22;9354;50.194;7.690;2024-01-15T03:33:19;-1.10;99.90
18450;DHT22;9354;50.194;7.690;2024-01-15T03:35:46;-1.10;99.90
18450;DHT22;9354;50.194;7.690;2024-01-15T03:38:13;-1.10;99.90
18450;DHT22;9354;50.194;7.690;2024-01-15T03:40:41;-1.10;99.90
18450;DHT22;9354;50.194;7.690;2024-01-15T03:43:08;-1.10;99.90
18450;DHT22;9354;50.194;7.690;2024-01-15T03:45:36;-1.10;99.90
18450;DHT22;9354;50.194;7.690;2024-01-15T03:48:04;-1.10;99.90
18450;DHT22;9354;50.194;7.690;2024-01-15T03:50:33;-1.10;99.90
18450;DHT22;9354;50.194;7.690;2024-01-15T03:53:00;-1.10;99.90
18450;DHT22;9354;50.194;7.690;2024-01-15T03:55:27;-1.10;99.90
18450;DHT22;9354;50.194;7.690;2024-01-15T03:57:55;-1.10;99.90
18450;DHT22;9354;50.194;7.690;2024-01-15T04:00:22;-1.10;99.90
18450;DHT22;9354;50.194;7.690;2024-01-15T04:02:50;-1.10;99.90
18450;DHT22;9354;50.194;7.690;2024-01-15T04:05:17;-1.10;99.90
18450;DHT22;9354;50.194;7.690;2024-01-15T04:07:46;-1.10;99.90
18450;DHT22;9354;50.194;7.690;2024-01-15T04:10:13;-1.10;99.90
18450;DHT22;9354;50.194;7.690;2024-01-15T04:12:41;-1.10;99.90
18450;DHT22;9354;50.194;7.690;2024-01-15T04:15:08;-1.10;99.90
18450;DHT22;9354;50.194;7.690;2024-01-15T04:17:36;-1.10;99.90
18450;DHT22;9354;50.194;7.690;2024-01-15T04:20:04;-1.10;99.90
18450;DHT22;9354;50.194;7.690;2024-01-15T04:22:33;-1.10;99.90
18450;DHT22;9354;50.194;7.690;2024-01-15T04:25:03;-1.10;99.90
18450;DHT22;9354;50.194;7.690;2024-01-15T04:27:31;-1.10;99.90
18450;DHT22;9354;50.194;7.690;2024-01-15T04:29:58;-1.00;99.90
18450;DHT22;9354;50.194;7.690;2024-01-15T04:32:26;-1.00;99.90
18450;DHT22;9354;50.194;7.690;2024-01-15T04:34:53;-1.10;99.90
18450;DHT22;9354;50.194;7.690;2024-01-15T04:37:21;-1.10;99.90
18450;DHT22;9354;50.194;7.690;2024-01-15T04:39:48;-1.10;99.90
18450;DHT22;9354;50.194;7.690;2024-01-15T04:42:20;-1.10;99.90
18450;DHT22;9354;50.194;7.690;2024-01-15T04:44:47;-1.10;99.90
18450;DHT22;9354;50.194;7.690;2024-01-15T04:47:15;-1.10;99.90
18450;DHT22;9354;50.194;7.690;2024-01-15T04:49:42;-1.10;99.90
18450;DHT22;9354;50.194;7.690;2024-01-15T04:52:10;-1.00;99.90
18450;DHT22;9354;50.194;7.690;2024-01-15T04:54:37;-1.00;99.90
18450;DHT22;9354;50.194;7.690;2024-01-15T04:57:04;-1.00;99.90
18450;DHT22;9354;50.194;7.690;2024-01-15T04:59:33;-1.00;99.90
18450;DHT22;9354;50.194;7.690;2024-01-15T05:02:01;-0.90;99.90
18450;DHT22;9354;50.194;7.690;2024-01-15T05:04:28;-0.90;99.90
18450;DHT22;9354;50.194;7.690;2024-01-15T05:06:56;-0.80;99.90
18450;DHT22;9354;50.194;7.690;2024-01-15T05:09:23;-0.80;99.90
18450;DHT22;9354;50.194;7.690;2024-01-15T05:11:51;-0.80;99.90
18450;DHT22;9354;50.194;7.690;2024-01-15T05:14:18;-0.80;99.90
18450;DHT22;9354;50.194;7.690;2024-01-15T05:16:48;-0.80;99.90
18450;DHT22;9354;50.194;7.690;2024-01-15T05:19:16;-0.80;99.90
18450;DHT22;9354;50.194;7.690;2024-01-15T05:21:43;-0.80;99.90
18450;DHT22;9354;50.194;7.690;2024-01-15T05:24:11;-0.70;99.90
18450;DHT22;9354;50.194;7.690;2024-01-15T05:26:38;-0.70;99.90
18450;DHT22;9354;50.194;7.690;2024-01-15T05:29:05;-0.70;99.90
18450;DHT22;9354;50.194;7.690;2024-01-15T05:31:33;-0.70;99.90
18450;DHT22;9354;50.194;7.690;2024-01-15T05:34:01;-0.70;99.90
18450;DHT22;9354;50.194;7.690;2024-01-15T05:36:29;-0.70;99.90
18450;DHT22;9354;50.194;7.690;2024-01-15T05:38:56;-0.70;99.90
18450;DHT22;9354;50.194;7.690;2024-01-15T05:41:24;-0.70;99.90
18450;DHT22;9354;50.194;7.690;2024-01-15T05:43:51;-0.60;99.90
18450;DHT22;9354;50.194;7.690;2024-01-15T05:46:18;-0.60;99.90
18450;DHT22;9354;50.194;7.690;2024-01-15T05:48:46;-0.60;99.90
18450;DHT22;9354;50.194;7.690;2024-01-15T05:51:15;-0.60;99.90
18450;DHT22;9354;50.194;7.690;2024-01-15T05:53:42;-0.60;99.90
18450;DHT22;9354;50.194;7.690;2024-01-15T05:56:10;-0.70;99.90
18450;DHT22;9354;50.194;7.690;2024-01-15T05:58:38;-0.70;99.90
18450;DHT22;9354;50.194;7.690;2024-01-15T06:01:05;-0.70;99.90
18450;DHT22;9354;50.194;7.690;2024-01-15T06:03:32;-0.70;99.90
18450;DHT22;9354;50.194;7.690;2024-01-15T06:06:00;-0.70;99.90
18450;DHT22;9354;50.194;7.690;2024-01-15T06:08:29;-0.70;99.90
18450;DHT22;9354;50.194;7.690;2024-01-15T06:10:56;-0.70;99.90
18450;DHT22;9354;50.194;7.690;2024-01-15T06:13:23;-0.70;99.90
18450;DHT22;9354;50.194;7.690;2024-01-15T06:15:51;-0.70;99.90
18450;DHT22;9354;50.194;7.690;2024-01-15T06:18:19;-0.70;99.90
18450;DHT22;9354;50.194;7.690;2024-01-15T06:20:46;-0.70;99.90
18450;DHT22;9354;50.194;7.690;2024-01-15T06:23:13;-0.70;99.90
18450;DHT22;9354;50.194;7.690;2024-01-15T06:25:42;-0.70;99.90
18450;DHT22;9354;50.194;7.690;2024-01-15T06:28:09;-0.70;99.90
18450;DHT22;9354;50.194;7.690;2024-01-15T06:30:37;-0.70;99.90
18450;DHT22;9354;50.194;7.690;2024-01-15T06:33:05;-0.70;99.90
18450;DHT22;9354;50.194;7.690;2024-01-15T06:35:32;-0.60;99.90
18450;DHT22;9354;50.194;7.690;2024-01-15T06:38:01;-0.60;99.90
18450;DHT22;9354;50.194;7.690;2024-01-15T06:40:28;-0.50;99.90
18450;DHT22;9354;50.194;7.690;2024-01-15T06:42:57;-0.50;99.90
18450;DHT22;9354;50.194;7.690;2024-01-15T06:45:25;-0.50;99.90
18450;DHT22;9354;50.194;7.690;2024-01-15T06:47:52;-0.50;99.90
18450;DHT22;9354;50.194;7.690;2024-01-15T06:50:19;-0.50;99.90
18450;DHT22;9354;50.194;7.690;2024-01-15T06:52:47;-0.50;99.90
18450;DHT22;9354;50.194;7.690;2024-01-15T06:55:14;-0.50;99.90
18450;DHT22;9354;50.194;7.690;2024-01-15T06:57:42;-0.40;99.90
18450;DHT22;9354;50.194;7.690;2024-01-15T07:00:12;-0.40;99.90
18450;DHT22;9354;50.194;7.690;2024-01-15T07:02:39;-0.40;99.90
18450;DHT22;9354;50.194;7.690;2024-01-15T07:05:07;-0.40;99.90
18450;DHT22;9354;50.194;7.690;2024-01-15T07:07:34;-0.40;99.90
18450;DHT22;9354;50.194;7.690;2024-01-15T07:10:02;-0.40;99.90
18450;DHT22;9354;50.194;7.690;2024-01-15T07:12:30;-0.40;99.90
18450;DHT22;9354;50.194;7.690;2024-01-15T07:14:58;-0.40;99.90
18450;DHT22;9354;50.194;7.690;2024-01-15T07:17:26;-0.50;99.90
18450;DHT22;9354;50.194;7.690;2024-01-15T07:19:54;-0.40;99.90
18450;DHT22;9354;50.194;7.690;2024-01-15T07:22:22;-0.50;99.90
18450;DHT22;9354;50.194;7.690;2024-01-15T07:24:50;-0.50;99.90
18450;DHT22;9354;50.194;7.690;2024-01-15T07:27:17;-0.50;99.90
18450;DHT22;9354;50.194;7.690;2024-01-15T07:29:44;-0.50;99.90
18450;DHT22;9354;50.194;7.690;2024-01-15T07:32:12;-0.40;99.90
18450;DHT22;9354;50.194;7.690;2024-01-15T07:34:40;-0.40;99.90
18450;DHT22;9354;50.194;7.690;2024-01-15T07:37:08;-0.40;99.90
18450;DHT22;9354;50.194;7.690;2024-01-15T07:39:35;-0.40;99.90
18450;DHT22;9354;50.194;7.690;2024-01-15T07:42:03;-0.40;99.90
18450;DHT22;9354;50.194;7.690;2024-01-15T07:44:30;-0.40;99.90
18450;DHT22;9354;50.194;7.690;2024-01-15T07:46:58;-0.40;99.90
18450;DHT22;9354;50.194;7.690;2024-01-15T07:49:25;-0.40;99.90
18450;DHT22;9354;50.194;7.690;2024-01-15T07:51:54;-0.40;99.90
18450;DHT22;9354;50.194;7.690;2024-01-15T07:54:21;-0.40;99.90
18450;DHT22;9354;50.194;7.690;2024-01-15T07:56:56;-0.40;99.90
18450;DHT22;9354;50.194;7.690;2024-01-15T07:59:24;-0.40;99.90
18450;DHT22;9354;50.194;7.690;2024-01-15T08:01:53;-0.40;99.90
18450;DHT22;9354;50.194;7.690;2024-01-15T08:04:20;-0.30;99.90
18450;DHT22;9354;50.194;7.690;2024-01-15T08:06:48;-0.30;99.90
18450;DHT22;9354;50.194;7.690;2024-01-15T08:09:17;-0.30;99.90
18450;DHT22;9354;50.194;7.690;2024-01-15T08:11:44;-0.30;99.90
18450;DHT22;9354;50.194;7.690;2024-01-15T08:14:12;-0.30;99.90
18450;DHT22;9354;50.194;7.690;2024-01-15T08:16:40;-0.30;99.90
18450;DHT22;9354;50.194;7.690;2024-01-15T08:19:09;-0.30;99.90
18450;DHT22;9354;50.194;7.690;2024-01-15T08:21:37;-0.30;99.90
18450;DHT22;9354;50.194;7.690;2024-01-15T08:24:04;-0.30;99.90
18450;DHT22;9354;50.194;7.690;2024-01-15T08:26:33;-0.30;99.90
18450;DHT22;9354;50.194;7.690;2024-01-15T08:29:01;-0.20;99.90
18450;DHT22;9354;50.194;7.690;2024-01-15T08:31:28;-0.20;99.90
18450;DHT22;9354;50.194;7.690;2024-01-15T08:33:55;-0.20;99.90
18450;DHT22;9354;50.194;7.690;2024-01-15T08:36:23;-0.20;99.90
18450;DHT22;9354;50.194;7.690;2024-01-15T08:38:51;-0.20;99.90
18450;DHT22;9354;50.194;7.690;2024-01-15T08:41:18;-0.20;99.90
18450;DHT22;9354;50.194;7.690;2024-01-15T08:43:47;-0.20;99.90
18450;DHT22;9354;50.194;7.690;2024-01-15T08:46:14;-0.20;99.90
18450;DHT22;9354;50.194;7.690;2024-01-15T08:48:42;-0.10;99.90
18450;DHT22;9354;50.194;7.690;2024-01-15T08:51:09;-0.10;99.90
18450;DHT22;9354;50.194;7.690;2024-01-15T08:53:37;0.00;99.90
18450;DHT22;9354;50.194;7.690;2024-01-15T08:56:05;0.00;99.90
18450;DHT22;9354;50.194;7.690;2024-01-15T08:58:35;0.00;99.90
18450;DHT22;9354;50.194;7.690;2024-01-15T09:01:03;0.10;99.90
18450;DHT22;9354;50.194;7.690;2024-01-15T09:03:31;0.10;99.90
18450;DHT22;9354;50.194;7.690;2024-01-15T09:06:00;0.20;99.90
18450;DHT22;9354;50.194;7.690;2024-01-15T09:08:27;0.30;99.90
18450;DHT22;9354;50.194;7.690;2024-01-15T09:10:54;0.30;99.90
18450;DHT22;9354;50.194;7.690;2024-01-15T09:13:22;0.30;99.90
18450;DHT22;9354;50.194;7.690;2024-01-15T09:15:49;0.40;99.90
18450;DHT22;9354;50.194;7.690;2024-01-15T09:18:18;0.40;99.90
18450;DHT22;9354;50.194;7.690;2024-01-15T09:20:45;0.40;99.90
18450;DHT22;9354;50.194;7.690;2024-01-15T09:23:13;0.40;99.90
18450;DHT22;9354;50.194;7.690;2024-01-15T09:25:40;0.40;99.90
18450;DHT22;9354;50.194;7.690;2024-01-15T09:28:08;0.50;99.90
18450;DHT22;9354;50.194;7.690;2024-01-15T09:30:35;0.60;99.90
18450;DHT22;9354;50.194;7.690;2024-01-15T09:33:03;0.60;99.90
18450;DHT22;9354;50.194;7.690;2024-01-15T09:35:32;0.60;99.90
18450;DHT22;9354;50.194;7.690;2024-01-15T09:38:00;0.60;99.90
18450;DHT22;9354;50.194;7.690;2024-01-15T09:40:31;0.60;99.90
18450;DHT22;9354;50.194;7.690;2024-01-15T09:42:59;0.50;99.90
18450;DHT22;9354;50.194;7.690;2024-01-15T09:45:27;0.50;99.90
18450;DHT22;9354;50.194;7.690;2024-01-15T09:47:55;0.50;99.90
18450;DHT22;9354;50.194;7.690;2024-01-15T09:50:22;0.40;99.90
18450;DHT22;9354;50.194;7.690;2024-01-15T09:52:51;0.40;99.90
18450;DHT22;9354;50.194;7.690;2024-01-15T09:55:19;0.40;99.90
18450;DHT22;9354;50.194;7.690;2024-01-15T09:57:46;0.30;99.90
18450;DHT22;9354;50.194;7.690;2024-01-15T10:00:15;0.30;99.90
18450;DHT22;9354;50.194;7.690;2024-01-15T10:02:44;0.30;99.90
18450;DHT22;9354;50.194;7.690;2024-01-15T10:05:12;0.30;99.90
18450;DHT22;9354;50.194;7.690;2024-01-15T10:07:40;0.30;99.90
18450;DHT22;9354;50.194;7.690;2024-01-15T10:10:10;0.40;99.90
18450;DHT22;9354;50.194;7.690;2024-01-15T10:12:39;0.40;99.90
18450;DHT22;9354;50.194;7.690;2024-01-15T10:15:09;0.40;99.90
18450;DHT22;9354;50.194;7.690;2024-01-15T10:17:38;0.40;99.90
18450;DHT22;9354;50.194;7.690;2024-01-15T10:20:09;0.40;99.90
18450;DHT22;9354;50.194;7.690;2024-01-15T10:22:40;0.40;99.90
18450;DHT22;9354;50.194;7.690;2024-01-15T10:25:11;0.40;99.90
18450;DHT22;9354;50.194;7.690;2024-01-15T10:27:39;0.40;99.90
18450;DHT22;9354;50.194;7.690;2024-01-15T10:30:08;0.40;99.90
18450;DHT22;9354;50.194;7.690;2024-01-15T10:32:35;0.40;99.90
18450;DHT22;9354;50.194;7.690;2024-01-15T10:35:03;0.40;99.90
18450;DHT22;9354;50.194;7.690;2024-01-15T10:37:33;0.50;99.90
18450;DHT22;9354;50.194;7.690;2024-01-15T10:40:01;0.50;99.90
18450;DHT22;9354;50.194;7.690;2024-01-15T10:42:33;0.50;99.90
18450;DHT22;9354;50.194;7.690;2024-01-15T10:45:01;0.60;99.90
18450;DHT22;9354;50.194;7.690;2024-01-15T10:47:29;0.60;99.90
18450;DHT22;9354;50.194;7.690;2024-01-15T10:49:57;0.70;99.90
18450;DHT22;9354;50.194;7.690;2024-01-15T10:52:24;0.70;99.90
18450;DHT22;9354;50.194;7.690;2024-01-15T10:54:53;0.70;99.90
18450;DHT22;9354;50.194;7.690;2024-01-15T10:57:21;0.80;99.90
18450;DHT22;9354;50.194;7.690;2024-01-15T10:59:50;0.80;99.90
18450;DHT22;9354;50.194;7.690;2024-01-15T11:02:18;0.80;99.90
18450;DHT22;9354;50.194;7.690;2024-01-15T11:04:45;0.80;99.90
18450;DHT22;9354;50.194;7.690;2024-01-15T11:07:13;0.80;99.90
18450;DHT22;9354;50.194;7.690;2024-01-15T11:09:41;0.90;99.90
18450;DHT22;9354;50.194;7.690;2024-01-15T11:12:10;0.90;99.90
18450;DHT22;9354;50.194;7.690;2024-01-15T11:14:44;1.00;99.90
18450;DHT22;9354;50.194;7.690;2024-01-15T11:17:15;1.00;99.90
18450;DHT22;9354;50.194;7.690;2024-01-15T11:19:44;1.00;99.90
18450;DHT22;9354;50.194;7.690;2024-01-15T11:25:14;1.00;99.90
18450;DHT22;9354;50.194;7.690;2024-01-15T11:27:43;0.90;99.90
18450;DHT22;9354;50.194;7.690;2024-01-15T11:30:13;1.00;99.90
18450;DHT22;9354;50.194;7.690;2024-01-15T11:32:42;1.00;99.90
18450;DHT22;9354;50.194;7.690;2024-01-15T11:35:11;1.00;99.90
18450;DHT22;9354;50.194;7.690;2024-01-15T11:37:57;1.00;99.90
18450;DHT22;9354;50.194;7.690;2024-01-15T11:40:38;1.00;99.90
18450;DHT22;9354;50.194;7.690;2024-01-15T11:43:08;1.00;99.90
18450;DHT22;9354;50.194;7.690;2024-01-15T11:45:36;1.00;99.90
18450;DHT22;9354;50.194;7.690;2024-01-15T11:48:13;1.00;99.90
18450;DHT22;9354;50.194;7.690;2024-01-15T11:50:42;1.00;99.90
18450;DHT22;9354;50.194;7.690;2024-01-15T11:53:17;1.00;99.90
18450;DHT22;9354;50.194;7.690;2024-01-15T11:55:45;1.00;99.90
18450;DHT22;9354;50.194;7.690;2024-01-15T11:58:14;1.00;99.90
18450;DHT22;9354;50.194;7.690;2024-01-15T12:00:44;1.00;99.90
18450;DHT22;9354;50.194;7.690;2024-01-15T12:03:13;1.00;99.90
18450;DHT22;9354;50.194;7.690;2024-01-15T12:05:41;1.00;99.90
18450;DHT22;9354;50.194;7.690;2024-01-15T12:08:09;1.10;99.90
18450;DHT22;9354;50.194;7.690;2024-01-15T12:10:37;1.10;99.90
18450;DHT22;9354;50.194;7.690;2024-01-15T12:13:10;1.10;99.90
18450;DHT22;9354;50.194;7.690;2024-01-15T12:15:38;1.10;99.90
18450;DHT22;9354;50.194;7.690;2024-01-15T12:18:08;1.10;99.90
18450;DHT22;9354;50.194;7.690;2024-01-15T12:20:37;1.20;99.90
18450;DHT22;9354;50.194;7.690;2024-01-15T12:23:05;1.20;99.90
18450;DHT22;9354;50.194;7.690;2024-01-15T12:25:33;1.30;99.90
18450;DHT22;9354;50.194;7.690;2024-01-15T12:28:01;1.40;99.90
18450;DHT22;9354;50.194;7.690;2024-01-15T12:30:29;1.60;99.90
18450;DHT22;9354;50.194;7.690;2024-01-15T12:32:57;1.90;99.90
18450;DHT22;9354;50.194;7.690;2024-01-15T12:35:25;2.20;99.90
18450;DHT22;9354;50.194;7.690;2024-01-15T12:37:55;2.40;99.90
18450;DHT22;9354;50.194;7.690;2024-01-15T12:40:23;2.50;99.90
18450;DHT22;9354;50.194;7.690;2024-01-15T12:42:51;2.50;99.90
18450;DHT22;9354;50.194;7.690;2024-01-15T12:45:18;2.40;99.90
18450;DHT22;9354;50.194;7.690;2024-01-15T12:47:46;2.40;99.90
18450;DHT22;9354;50.194;7.690;2024-01-15T12:50:14;2.40;99.90
18450;DHT22;9354;50.194;7.690;2024-01-15T12:52:41;2.40;99.90
18450;DHT22;9354;50.194;7.690;2024-01-15T12:55:10;2.30;99.90
18450;DHT22;9354;50.194;7.690;2024-01-15T12:57:38;2.20;99.90
18450;DHT22;9354;50.194;7.690;2024-01-15T13:00:06;2.10;99.90
18450;DHT22;9354;50.194;7.690;2024-01-15T13:02:38;2.00;99.90
18450;DHT22;9354;50.194;7.690;2024-01-15T13:05:08;1.90;99.90
18450;DHT22;9354;50.194;7.690;2024-01-15T13:07:37;1.80;99.90
18450;DHT22;9354;50.194;7.690;2024-01-15T13:10:05;1.80;99.90
18450;DHT22;9354;50.194;7.690;2024-01-15T13:12:34;1.80;99.90
18450;DHT22;9354;50.194;7.690;2024-01-15T13:15:02;1.90;99.90
18450;DHT22;9354;50.194;7.690;2024-01-15T13:17:30;2.00;99.90
18450;DHT22;9354;50.194;7.690;2024-01-15T13:19:58;2.30;99.90
18450;DHT22;9354;50.194;7.690;2024-01-15T13:22:25;2.50;99.90
18450;DHT22;9354;50.194;7.690;2024-01-15T13:24:57;2.80;99.90
18450;DHT22;9354;50.194;7.690;2024-01-15T13:27:25;2.90;99.90
18450;DHT22;9354;50.194;7.690;2024-01-15T13:29:54;3.00;99.90
18450;DHT22;9354;50.194;7.690;2024-01-15T13:32:24;3.00;99.90
18450;DHT22;9354;50.194;7.690;2024-01-15T13:34:52;2.90;99.90
18450;DHT22;9354;50.194;7.690;2024-01-15T13:37:20;2.90;99.90
18450;DHT22;9354;50.194;7.690;2024-01-15T13:39:47;2.80;99.90
18450;DHT22;9354;50.194;7.690;2024-01-15T13:42:14;2.70;99.90
18450;DHT22;9354;50.194;7.690;2024-01-15T13:44:42;2.60;99.90
18450;DHT22;9354;50.194;7.690;2024-01-15T13:47:11;2.60;99.90
18450;DHT22;9354;50.194;7.690;2024-01-15T13:49:39;2.50;99.90
18450;DHT22;9354;50.194;7.690;2024-01-15T13:52:06;2.40;99.90
18450;DHT22;9354;50.194;7.690;2024-01-15T13:54:36;2.40;99.90
18450;DHT22;9354;50.194;7.690;2024-01-15T13:57:04;2.40;99.90
18450;DHT22;9354;50.194;7.690;2024-01-15T13:59:32;2.50;99.90
18450;DHT22;9354;50.194;7.690;2024-01-15T14:01:59;2.50;99.90
18450;DHT22;9354;50.194;7.690;2024-01-15T14:04:28;2.60;99.90
18450;DHT22;9354;50.194;7.690;2024-01-15T14:06:56;2.60;99.90
18450;DHT22;9354;50.194;7.690;2024-01-15T14:09:23;2.70;99.90
18450;DHT22;9354;50.194;7.690;2024-01-15T14:11:52;2.70;99.90
18450;DHT22;9354;50.194;7.690;2024-01-15T14:14:19;2.80;99.90
18450;DHT22;9354;50.194;7.690;2024-01-15T14:16:47;2.80;99.90
18450;DHT22;9354;50.194;7.690;2024-01-15T14:19:14;2.70;99.90
18450;DHT22;9354;50.194;7.690;2024-01-15T14:21:43;2.70;99.90
18450;DHT22;9354;50.194;7.690;2024-01-15T14:24:10;2.80;99.90
18450;DHT22;9354;50.194;7.690;2024-01-15T14:26:38;2.80;99.90
18450;DHT22;9354;50.194;7.690;2024-01-15T14:29:05;2.90;99.90
18450;DHT22;9354;50.194;7.690;2024-01-15T14:31:32;2.80;99.90
18450;DHT22;9354;50.194;7.690;2024-01-15T14:34:00;2.80;99.90
18450;DHT22;9354;50.194;7.690;2024-01-15T14:36:29;2.70;99.90
18450;DHT22;9354;50.194;7.690;2024-01-15T14:38:58;2.70;99.90
18450;DHT22;9354;50.194;7.690;2024-01-15T14:41:25;2.60;99.90
18450;DHT22;9354;50.194;7.690;2024-01-15T14:43:52;2.50;99.90
18450;DHT22;9354;50.194;7.690;2024-01-15T14:46:20;2.50;99.90
18450;DHT22;9354;50.194;7.690;2024-01-15T14:48:48;2.40;99.90
18450;DHT22;9354;50.194;7.690;2024-01-15T14:51:15;2.30;99.90
18450;DHT22;9354;50.194;7.690;2024-01-15T14:53:43;2.20;99.90
18450;DHT22;9354;50.194;7.690;2024-01-15T14:56:11;2.10;99.90
18450;DHT22;9354;50.194;7.690;2024-01-15T14:58:39;2.00;99.90
18450;DHT22;9354;50.194;7.690;2024-01-15T15:01:06;1.90;99.90
18450;DHT22;9354;50.194;7.690;2024-01-15T15:03:34;1.90;99.90
18450;DHT22;9354;50.194;7.690;2024-01-15T15:06:01;1.80;99.90
18450;DHT22;9354;50.194;7.690;2024-01-15T15:08:28;1.80;99.90
18450;DHT22;9354;50.194;7.690;2024-01-15T15:10:56;1.70;99.90
18450;DHT22;9354;50.194;7.690;2024-01-15T15:13:25;1.70;99.90
18450;DHT22;9354;50.194;7.690;2024-01-15T15:15:53;1.70;99.90
18450;DHT22;9354;50.194;7.690;2024-01-15T15:18:21;1.60;99.90
18450;DHT22;9354;50.194;7.690;2024-01-15T15:20:49;1.60;99.90
18450;DHT22;9354;50.194;7.690;2024-01-15T15:23:18;1.60;99.90
18450;DHT22;9354;50.194;7.690;2024-01-15T15:25:45;1.60;99.90
18450;DHT22;9354;50.194;7.690;2024-01-15T15:28:12;1.50;99.90
18450;DHT22;9354;50.194;7.690;2024-01-15T15:30:43;1.50;99.90
18450;DHT22;9354;50.194;7.690;2024-01-15T15:33:11;1.50;99.90
18450;DHT22;9354;50.194;7.690;2024-01-15T15:35:39;1.50;99.90
18450;DHT22;9354;50.194;7.690;2024-01-15T15:38:06;1.50;99.90
18450;DHT22;9354;50.194;7.690;2024-01-15T15:40:33;1.50;99.90
18450;DHT22;9354;50.194;7.690;2024-01-15T15:43:01;1.50;99.90
18450;DHT22;9354;50.194;7.690;2024-01-15T15:45:28;1.40;99.90
18450;DHT22;9354;50.194;7.690;2024-01-15T15:47:57;1.40;99.90
18450;DHT22;9354;50.194;7.690;2024-01-15T15:50:25;1.40;99.90
18450;DHT22;9354;50.194;7.690;2024-01-15T15:52:52;1.40;99.90
18450;DHT22;9354;50.194;7.690;2024-01-15T15:55:20;1.30;99.90
18450;DHT22;9354;50.194;7.690;2024-01-15T15:57:49;1.40;99.90
18450;DHT22;9354;50.194;7.690;2024-01-15T16:00:17;1.30;99.90